Latest Weather Observations for Richmond

IDN60901

Issued at 3:21 pm EST Wednesday 22 September 2021 (issued every 10 minutes, with the page automatically refreshed every 10 minutes)

About weather observations | Map of Sydney area stations | Latest observations for Sydney area | Other Formats
Station Details ID: 067105 Name: RICHMOND RAAF Lat: -33.60 Lon: 150.78 Height: 19.0 m
Data from the previous 72 hours. | See also: Recent months at Richmond
Date/Time
EST
Temp
°C
App
Temp
°C
Dew
Point
°C
Rel
Hum
%
Delta-T
°C
Wind Press
QNH
hPa
Press
MSL
hPa
Rain since
9am
mm
Dir  Spd
km/h
Gust
km/h
Spd
kts
Gust
kts
22/03:00pm 20.5 18.1 4.5 35 7.7 ENE 6 13 3 7 1020.9 1020.9 0.0
22/02:30pm 20.0 16.3 4.5 36 7.5 SE 13 22 7 12 1021.1 1021.1 0.0
22/02:00pm 19.6 16.5 3.7 35 7.5 E 9 17 5 9 1021.4 1021.4 0.0
22/01:30pm 19.8 15.8 4.7 37 7.3 SSE 15 20 8 11 1021.7 1021.7 0.0
22/01:00pm 18.6 16.0 4.0 38 6.9 SSW 7 13 4 7 1022.2 1022.2 0.0
22/12:30pm 18.8 15.1 4.6 39 6.8 ESE 13 24 7 13 1022.6 1022.6 0.0
22/12:00pm 17.9 13.3 3.8 39 6.6 S 17 24 9 13 1023.0 1023.0 0.0
22/11:30am 18.3 13.9 4.5 40 6.6 SSE 17 26 9 14 1023.4 1023.4 0.0
22/11:00am 17.4 14.5 4.7 43 6.0 S 9 20 5 11 1023.7 1023.7 0.0
22/10:30am 16.9 12.0 3.9 42 6.1 S 19 24 10 13 1023.8 1023.8 0.0
22/10:00am 16.5 12.9 4.9 46 5.5 SW 13 19 7 10 1024.1 1024.1 0.0
22/09:30am 15.5 10.8 3.3 44 5.6 SSW 17 24 9 13 1024.3 1024.3 0.0
22/09:00am 14.8 10.1 3.3 46 5.2 S 17 24 9 13 1024.3 1024.3 0.0
22/08:30am 13.3 10.9 5.2 58 3.8 ENE 7 11 4 6 1024.3 1024.3 0.0
22/08:00am 11.1 9.0 6.0 71 2.4 ENE 6 7 3 4 1024.2 1024.2 0.0
22/07:30am 9.6 8.7 6.1 79 1.6 CALM 0 0 0 0 1024.2 1024.2 0.0
22/07:00am 7.2 6.1 5.2 87 0.9 CALM 0 0 0 0 1024.0 1024.0 0.0
22/06:30am 5.0 3.8 4.7 98 0.1 CALM 0 0 0 0 1023.8 1023.8 0.0
22/06:00am 3.7 2.3 3.4 98 0.1 CALM 0 0 0 0 1023.5 1023.5 0.0
22/05:30am 3.9 2.5 3.6 98 0.1 CALM 0 0 0 0 1023.2 1023.2 0.0
22/05:00am 4.7 3.5 4.4 98 0.1 CALM 0 0 0 0 1022.9 1022.9 0.0
22/04:30am 3.9 2.5 3.3 96 0.2 CALM 0 0 0 0 1022.9 1022.9 0.0
22/04:00am 4.3 2.9 3.6 95 0.3 CALM 0 4 0 2 1022.7 1022.7 0.0
22/03:30am 4.7 2.0 3.8 94 0.4 WSW 7 7 4 4 1022.6 1022.6 0.0
22/03:00am 5.1 3.7 3.6 90 0.6 CALM 0 6 0 3 1022.6 1022.6 0.0
22/02:30am 6.2 3.6 3.4 82 1.2 WSW 6 7 3 4 1022.8 1022.8 0.0
22/02:00am 7.5 4.5 4.1 79 1.5 WSW 9 9 5 5 1022.9 1022.9 0.0
22/01:30am 9.1 6.2 4.7 74 2.0 SW 9 11 5 6 1023.0 1023.0 0.0
22/01:00am 9.9 6.4 5.3 73 2.1 SW 13 17 7 9 1023.4 1023.4 0.0
22/12:30am 10.0 7.3 5.8 75 1.9 WSW 9 11 5 6 1023.7 1023.7 0.0
22/12:00am 10.2 7.7 6.4 77 1.8 WSW 9 13 5 7 1024.0 1024.0 0.0
 
Date/Time
EST
Temp
°C
App
Temp
°C
Dew
Point
°C
Rel
Hum
%
Delta-T
°C
Wind Press
QNH
hPa
Press
MSL
hPa
Rain since
9am
mm
Dir  Spd
km/h
Gust
km/h
Spd
kts
Gust
kts
21/11:30pm 9.2 6.2 6.1 81 1.4 W 11 13 6 7 1023.8 1023.8 0.0
21/11:00pm 9.0 6.2 5.2 77 1.7 WSW 9 9 5 5 1023.8 1023.8 0.0
21/10:30pm 10.8 7.8 6.0 72 2.2 WSW 11 15 6 8 1024.0 1024.0 0.0
21/10:00pm 11.2 8.3 6.3 72 2.3 SW 11 13 6 7 1024.1 1024.1 0.0
21/09:30pm 10.0 7.4 6.0 76 1.8 WSW 9 11 5 6 1023.7 1023.7 0.0
21/09:00pm 10.0 7.7 5.6 74 2.0 WSW 7 9 4 5 1023.3 1023.3 0.0
21/08:30pm 10.3 8.0 5.7 73 2.1 WSW 7 9 4 5 1023.0 1023.0 0.0
21/08:00pm 10.5 7.8 5.5 71 2.3 W 9 11 5 6 1022.5 1022.5 0.0
21/07:30pm 11.7 9.0 5.6 66 2.8 SSW 9 13 5 7 1022.0 1022.0 0.0
21/07:00pm 12.1 8.5 4.8 61 3.3 SSE 13 19 7 10 1021.2 1021.2 0.0
21/06:30pm 12.6 8.4 3.6 54 4.0 SE 15 20 8 11 1020.5 1020.5 0.0
21/06:00pm 13.5 9.9 0.5 41 5.5 S 9 13 5 7 1019.8 1019.8 0.0
21/05:30pm 14.5 10.0 0.0 37 6.1 S 13 19 7 10 1019.5 1019.5 0.0
21/05:00pm 15.3 9.9 1.1 38 6.1 S 19 28 10 15 1019.5 1019.5 0.0
21/04:30pm 15.8 9.8 1.2 37 6.4 S 22 35 12 19 1019.1 1019.1 0.0
21/04:00pm 15.2 8.5 1.4 39 6.0 S 26 41 14 22 1019.0 1019.0 0.0
21/03:49pm 15.1 7.6 0.9 38 6.1 S 30 48 16 26 1018.8 1018.8 0.0
21/03:30pm 15.9 7.9 0.1 34 6.7 S 32 46 17 25 1018.3 1018.3 0.0
21/03:17pm 15.6 7.6 0.6 36 6.5 S 32 52 17 28 1018.0 1018.0 0.0
21/03:00pm 16.7 9.9 -1.9 28 7.6 S 24 37 13 20 1017.5 1017.5 0.0
21/02:50pm 16.6 9.0 -2.5 27 7.8 S 28 46 15 25 1017.3 1017.3 0.0
21/02:30pm 16.1 9.4 -1.0 31 7.1 SSE 24 35 13 19 1017.2 1017.2 0.0
21/02:00pm 15.9 9.1 -1.6 30 7.2 S 24 35 13 19 1016.8 1016.8 0.0
21/01:46pm 15.9 7.5 -2.1 29 7.3 S 32 52 17 28 1016.8 1016.8 0.0
21/01:30pm 17.6 10.6 -0.2 30 7.7 SSW 26 39 14 21 1016.8 1016.8 0.0
21/01:00pm 16.5 9.1 -0.7 31 7.2 SSW 28 43 15 23 1016.9 1016.9 0.0
21/12:30pm 16.8 9.9 0.0 32 7.2 SSW 26 39 14 21 1016.9 1016.9 0.0
21/12:00pm 15.5 8.1 -0.7 33 6.8 SSW 28 39 15 21 1016.9 1016.9 0.0
21/11:30am 14.9 7.9 -0.8 34 6.5 SSW 26 43 14 23 1016.9 1016.9 0.0
21/11:00am 15.0 8.4 -0.3 35 6.4 SSW 24 39 13 21 1016.9 1016.9 0.0
21/10:30am 14.5 7.1 -0.8 35 6.3 SW 28 39 15 21 1016.9 1016.9 0.0
21/10:00am 14.4 7.6 0.6 39 5.9 SSW 26 35 14 19 1016.9 1016.9 0.0
21/09:30am 13.5 6.2 -0.2 39 5.7 SW 28 35 15 19 1016.8 1016.8 0.0
21/09:00am 12.0 6.1 -0.8 41 5.1 SSW 20 32 11 17 1016.7 1016.7 0.0
21/08:30am 12.4 6.8 0.2 43 5.0 WSW 19 28 10 15 1016.5 1016.5 0.0
21/08:00am 11.5 5.3 0.0 45 4.7 SW 22 30 12 16 1016.4 1016.4 0.0
21/07:30am 11.0 5.9 0.7 49 4.3 SW 17 26 9 14 1015.9 1015.9 0.0
21/07:00am 9.9 5.9 3.0 62 3.0 WSW 13 17 7 9 1015.5 1015.5 0.0
21/06:30am 7.5 4.1 4.1 79 1.5 WSW 11 13 6 7 1015.0 1015.0 0.0
21/06:00am 7.6 3.3 3.3 74 1.8 W 15 19 8 10 1014.3 1014.3 0.0
21/05:30am 8.4 5.4 4.2 75 1.8 SW 9 13 5 7 1014.4 1014.4 0.0
21/05:00am 8.2 7.2 5.5 83 1.2 CALM 0 0 0 0 1014.0 1014.0 0.0
21/04:30am 8.2 6.1 5.7 84 1.1 W 6 7 3 4 1013.7 1013.7 0.0
21/04:00am 7.9 7.0 5.9 87 0.9 CALM 0 9 0 5 1013.3 1013.3 0.0
21/03:30am 7.1 5.9 4.6 84 1.1 CALM 0 0 0 0 1013.1 1013.1 0.0
21/03:00am 6.8 4.7 3.9 82 1.2 SW 4 7 2 4 1013.0 1013.0 0.0
21/02:30am 7.1 5.8 3.9 80 1.4 CALM 0 0 0 0 1012.9 1012.9 0.0
21/02:00am 7.8 4.7 3.5 74 1.8 SSE 9 15 5 8 1012.8 1012.8 0.0
21/01:30am 8.1 6.3 3.2 71 2.1 SSE 2 6 1 3 1013.0 1013.0 0.0
21/01:00am 7.6 4.4 2.9 72 2.0 W 9 13 5 7 1012.8 1012.8 0.0
21/12:30am 9.8 7.1 2.9 62 3.0 W 6 11 3 6 1013.2 1013.2 0.0
21/12:00am 10.5 8.9 2.6 58 3.4 CALM 0 0 0 0 1013.3 1013.3 0.0
 
Date/Time
EST
Temp
°C
App
Temp
°C
Dew
Point
°C
Rel
Hum
%
Delta-T
°C
Wind Press
QNH
hPa
Press
MSL
hPa
Rain since
9am
mm
Dir  Spd
km/h
Gust
km/h
Spd
kts
Gust
kts
20/11:30pm 11.9 8.6 2.4 52 4.1 NW 9 11 5 6 1013.2 1013.2 0.0
20/11:00pm 12.8 8.7 2.1 48 4.6 WSW 13 22 7 12 1014.0 1014.0 0.0
20/10:30pm 12.7 7.9 2.6 50 4.4 W 17 22 9 12 1013.7 1013.7 0.0
20/10:00pm 12.6 9.0 2.7 51 4.3 WSW 11 17 6 9 1014.2 1014.2 0.0
20/09:30pm 13.0 8.1 2.3 48 4.7 W 17 32 9 17 1014.2 1014.2 0.0
20/09:00pm 13.1 7.8 2.9 50 4.5 WSW 20 33 11 18 1014.2 1014.2 0.0
20/08:33pm 13.7 7.0 3.5 50 4.6 WSW 28 46 15 25 1014.2 1014.2 0.0
20/08:30pm 13.9 6.4 3.7 50 4.6 WSW 32 44 17 24 1014.2 1014.2 0.0
20/08:09pm 14.9 7.9 4.3 49 4.9 SSW 30 50 16 27 1013.4 1013.4 0.0
20/08:08pm 15.0 8.4 4.4 49 4.9 SSW 28 48 15 26 1013.4 1013.4 0.0
20/08:00pm 14.6 9.3 4.9 52 4.5 S 22 30 12 16 1012.9 1012.9 0.0
20/07:30pm 16.2 10.2 5.5 49 5.1 SW 26 37 14 20 1012.1 1012.1 0.0
20/07:06pm 18.7 12.4 5.9 43 6.3 WSW 28 46 15 25 1011.1 1011.1 0.0
20/07:00pm 18.9 11.8 5.4 41 6.6 WSW 32 46 17 25 1010.9 1010.9 0.0
20/06:56pm 19.2 12.8 5.3 40 6.8 WSW 28 44 15 24 1010.7 1010.7 0.0
20/06:30pm 20.2 14.9 3.0 32 8.1 WSW 20 26 11 14 1009.9 1009.9 0.0
20/06:00pm 19.7 15.9 1.7 30 8.2 WNW 11 15 6 8 1009.1 1009.1 0.0
20/05:30pm 21.6 16.0 1.3 26 9.3 WNW 20 35 11 19 1008.8 1008.8 0.0
20/05:00pm 23.2 16.0 0.9 23 10.3 NW 28 44 15 24 1008.4 1008.4 0.0
20/04:32pm 23.8 15.8 0.2 21 10.8 WNW 32 54 17 29 1008.1 1008.1 0.0
20/04:30pm 23.8 16.3 1.4 23 10.5 WNW 30 44 16 24 1008.2 1008.2 0.0
20/04:00pm 24.4 15.9 0.7 21 11.0 WNW 35 44 19 24 1008.1 1008.1 0.0
20/03:30pm 25.0 17.6 1.8 22 11.0 WNW 30 44 16 24 1008.1 1008.1 0.0
20/03:00pm 24.9 15.5 -0.3 19 11.6 WNW 39 59 21 32 1008.1 1008.1 0.0
20/02:32pm 25.5 16.5 0.2 19 11.7 WNW 37 56 20 30 1008.0 1008.0 0.0
20/02:30pm 25.5 16.4 -0.5 18 11.9 WNW 37 50 20 27 1008.1 1008.1 0.0
20/02:00pm 26.0 18.7 -0.1 18 12.1 WNW 28 39 15 21 1008.4 1008.4 0.0
20/01:35pm 26.1 19.0 1.4 20 11.8 WNW 28 46 15 25 1008.8 1008.8 0.0
20/01:30pm 25.6 19.0 2.3 22 11.2 WNW 26 35 14 19 1008.9 1008.9 0.0
20/01:00pm 25.6 18.6 1.7 21 11.4 WNW 28 39 15 21 1009.5 1009.5 0.0
20/12:52pm 25.5 18.5 2.2 22 11.2 WNW 28 41 15 22 1009.8 1009.8 0.0
20/12:39pm 25.2 18.1 1.3 21 11.3 WNW 28 46 15 25 1010.1 1010.1 0.0
20/12:30pm 25.2 18.9 1.3 21 11.3 WNW 24 39 13 21 1010.3 1010.3 0.0
20/12:00pm 25.3 18.3 2.1 22 11.1 W 28 39 15 21 1011.0 1011.0 0.0
20/11:30am 25.2 17.4 2.0 22 11.1 W 32 46 17 25 1011.7 1011.7 0.0
20/11:24am 24.8 17.5 0.3 20 11.3 W 28 46 15 25 1011.8 1011.8 0.0
20/11:00am 24.7 17.5 0.9 21 11.1 W 28 43 15 23 1012.1 1012.1 0.0
20/10:59am 24.8 17.8 1.7 22 11.0 W 28 43 15 23 1012.2 1012.2 0.0
20/10:30am 23.2 19.2 4.7 30 9.2 N 15 24 8 13 1012.7 1012.7 0.0
20/10:00am 22.3 17.5 5.7 34 8.3 N 20 28 11 15 1013.3 1013.3 0.0
20/09:30am 20.7 15.0 4.7 35 7.8 N 24 30 13 16 1013.7 1013.7 0.0
20/09:00am 20.0 14.7 4.9 37 7.3 N 22 28 12 15 1014.3 1014.3 0.0
20/08:30am 18.4 13.9 6.3 45 6.0 N 19 28 10 15 1014.6 1014.6 0.0
20/08:00am 16.4 13.0 6.0 50 5.0 NNE 13 19 7 10 1014.9 1014.9 0.0
20/07:30am 14.4 12.1 5.7 56 4.1 NNE 7 11 4 6 1015.1 1015.1 0.0
20/07:00am 12.5 10.1 5.4 62 3.3 NNE 7 11 4 6 1015.3 1015.3 0.0
20/06:30am 10.7 7.8 4.8 67 2.7 NE 9 13 5 7 1015.0 1015.0 0.0
20/06:00am 9.9 6.9 4.3 68 2.5 NE 9 13 5 7 1014.9 1014.9 0.0
20/05:30am 9.9 6.9 3.9 66 2.6 NNE 9 13 5 7 1015.0 1015.0 0.0
20/05:00am 8.7 5.8 4.5 75 1.9 NNE 9 15 5 8 1015.2 1015.2 0.0
20/04:30am 6.5 5.1 3.7 82 1.2 CALM 0 6 0 3 1015.4 1015.4 0.0
20/04:00am 9.9 6.9 4.3 68 2.5 N 9 13 5 7 1015.6 1015.6 0.0
20/03:30am 10.7 7.9 5.0 68 2.6 NNE 9 13 5 7 1015.8 1015.8 0.0
20/03:00am 10.5 7.7 5.1 69 2.4 N 9 13 5 7 1016.1 1016.1 0.0
20/02:30am 9.9 7.5 5.1 72 2.2 N 7 9 4 5 1016.6 1016.6 0.0
20/02:00am 10.0 7.5 5.0 71 2.3 N 7 11 4 6 1016.9 1016.9 0.0
20/01:30am 9.4 7.1 5.8 78 1.6 N 7 9 4 5 1017.5 1017.5 0.0
20/01:00am 9.1 6.9 6.2 82 1.3 N 7 9 4 5 1018.0 1018.0 0.0
20/12:30am 8.3 6.2 5.8 84 1.1 NNW 6 7 3 4 1018.3 1018.3 0.0
20/12:00am 7.4 5.3 5.7 89 0.8 NNW 6 11 3 6 1018.6 1018.6 0.0
 
Date/Time
EST
Temp
°C
App
Temp
°C
Dew
Point
°C
Rel
Hum
%
Delta-T
°C
Wind Press
QNH
hPa
Press
MSL
hPa
Rain since
9am
mm
Dir  Spd
km/h
Gust
km/h
Spd
kts
Gust
kts
19/11:30pm 8.6 7.8 6.7 88 0.9 CALM 0 0 0 0 1018.8 1018.8 0.0
19/11:00pm 8.3 7.3 5.6 83 1.2 CALM 0 0 0 0 1018.9 1018.9 0.0
19/10:30pm 8.7 7.7 5.4 80 1.5 CALM 0 0 0 0 1019.2 1019.2 0.0
19/10:00pm 9.5 8.5 5.5 76 1.8 CALM 0 0 0 0 1019.3 1019.3 0.0
19/09:30pm 10.6 8.9 5.8 72 2.2 S 4 7 2 4 1019.2 1019.2 0.0
19/09:00pm 11.4 10.3 5.3 66 2.8 CALM 0 0 0 0 1019.2 1019.2 0.0
19/08:30pm 12.5 9.7 5.0 60 3.5 WSW 9 11 5 6 1019.2 1019.2 0.0
19/08:00pm 14.5 12.0 4.5 51 4.6 W 7 9 4 5 1019.2 1019.2 0.0
19/07:30pm 14.7 11.4 4.4 50 4.8 WSW 11 15 6 8 1019.0 1019.0 0.0
19/07:00pm 16.6 12.9 4.3 44 5.8 WSW 13 15 7 8 1018.8 1018.8 0.0
19/06:30pm 18.0 14.6 3.9 39 6.6 WSW 11 13 6 7 1018.4 1018.4 0.0
19/06:00pm 19.2 16.0 3.0 34 7.5 WSW 9 13 5 7 1018.2 1018.2 0.0
19/05:30pm 20.3 16.6 2.6 31 8.3 SW 11 15 6 8 1017.9 1017.9 0.0
19/05:00pm 21.5 17.1 2.7 29 8.8 WSW 15 20 8 11 1017.6 1017.6 0.0
19/04:30pm 22.3 16.9 1.3 25 9.7 WSW 19 26 10 14 1017.3 1017.3 0.0
19/04:00pm 22.9 17.4 1.9 25 9.8 WSW 20 28 11 15 1017.2 1017.2 0.0
19/03:30pm 23.3 18.8 2.2 25 10.0 WSW 15 22 8 12 1017.3 1017.3 0.0

Latest Capital City Observations: Canberra | Sydney | Melbourne | Brisbane | Adelaide | Perth | Hobart | Darwin

Other formats

Comma delimited format used in spreadsheet applications
http://www.bom.gov.au/fwo/IDN60901/IDN60901.95753.axf

JavaScript Object Notation format (JSON) in row-major order
http://www.bom.gov.au/fwo/IDN60901/IDN60901.95753.json

Data quality

Most of these data are generated automatically and are frequently updated. Quality checks on data are not normally performed. It is possible for incorrect values to appear. Refer to information at About Latest Weather Observations and please check the disclaimer before using these data.